Time;durP1;ratioP1;P1;durP2;ratioP2;P2;SDS_P1;SDS_P2;PMS_P1;PMS_P2;Temp;Humidity;BMP_temperature;BMP_pressure;BME280_temperature;BME280_humidity;BME280_pressure;Samples;Min_cycle;Max_cycle;Signal;HPM_P1;HPM_P2
2022/10/28 00:01:03;;;;;;;5.95;0.80;;;21.60;59.80;;;;;;5070508;28;20136;-51
2022/10/28 00:03:30;;;;;;;12.38;2.03;;;21.60;59.80;;;;;;5070363;28;20068;-54
2022/10/28 00:06:02;;;;;;;4.57;0.70;;;21.60;59.80;;;;;;5070453;28;20068;-48
2022/10/28 00:08:29;;;;;;;4.35;1.73;;;21.60;59.90;;;;;;5069694;28;20123;-47
2022/10/28 00:11:04;;;;;;;12.20;0.73;;;21.60;59.80;;;;;;5069502;28;20060;-52
2022/10/28 00:13:31;;;;;;;5.80;1.15;;;21.60;59.80;;;;;;5070116;28;20070;-49
2022/10/28 00:16:04;;;;;;;6.20;1.48;;;21.60;59.90;;;;;;5064934;28;20033;-51
2022/10/28 00:18:31;;;;;;;9.30;0.90;;;21.60;59.90;;;;;;5057526;28;20047;-50
2022/10/28 00:21:01;;;;;;;4.65;1.00;;;21.50;59.90;;;;;;5070069;28;20048;-50
2022/10/28 00:23:29;;;;;;;4.15;0.88;;;21.50;60.00;;;;;;5070008;28;20055;-49
2022/10/28 00:26:04;;;;;;;7.53;2.15;;;21.50;60.10;;;;;;5069280;28;20036;-50
2022/10/28 00:28:31;;;;;;;6.93;1.15;;;21.50;60.10;;;;;;5070052;28;20052;-52
2022/10/28 00:31:04;;;;;;;9.77;1.33;;;21.50;60.20;;;;;;5069788;28;20046;-50
2022/10/28 00:33:31;;;;;;;5.78;1.70;;;21.50;60.20;;;;;;5069736;28;20084;-50
2022/10/28 00:36:08;;;;;;;4.57;1.38;;;21.50;60.30;;;;;;5068063;28;20591;-52
2022/10/28 00:38:35;;;;;;;6.93;0.65;;;21.50;60.30;;;;;;5069039;28;20041;-52
2022/10/28 00:41:03;;;;;;;6.38;1.85;;;21.40;60.30;;;;;;5068431;28;20044;-49
2022/10/28 00:43:35;;;;;;;7.30;1.13;;;21.40;60.40;;;;;;5070067;28;20598;-53
2022/10/28 00:46:03;;;;;;;4.63;1.23;;;21.40;60.40;;;;;;5069668;28;20044;-49
2022/10/28 00:48:30;;;;;;;12.38;0.40;;;21.40;60.50;;;;;;5075119;28;20119;-51
2022/10/28 00:50:58;;;;;;;3.40;0.70;;;21.40;60.50;;;;;;5067732;28;20114;-50
2022/10/28 00:53:28;;;;;;;4.40;1.17;;;21.40;60.60;;;;;;5068937;28;20041;-51
2022/10/28 00:55:58;;;;;;;4.97;0.95;;;21.40;60.60;;;;;;5067962;28;20227;-49
2022/10/28 00:58:27;;;;;;;7.40;1.65;;;21.30;60.60;;;;;;5069394;28;20052;-49
2022/10/28 01:00:55;;;;;;;5.65;1.02;;;21.30;60.60;;;;;;5069193;28;20550;-52
2022/10/28 01:03:23;;;;;;;5.32;1.38;;;21.30;60.70;;;;;;5069051;28;20059;-50
2022/10/28 01:05:51;;;;;;;5.85;0.52;;;21.40;60.70;;;;;;5048902;28;20073;-48
2022/10/28 01:08:18;;;;;;;15.45;2.15;;;21.30;60.70;;;;;;5048227;28;20041;-50
2022/10/28 01:11:08;;;;;;;6.20;3.42;;;21.30;60.80;;;;;;5048844;28;20041;-50
2022/10/28 01:13:46;;;;;;;9.95;0.60;;;21.30;60.80;;;;;;4987049;28;20049;-48
2022/10/28 01:16:23;;;;;;;3.88;1.50;;;21.20;60.80;;;;;;4970686;28;20121;-48
2022/10/28 01:19:00;;;;;;;5.53;1.13;;;21.20;60.90;;;;;;4996884;28;20064;-48
2022/10/28 01:21:52;;;;;;;4.63;0.40;;;21.20;60.90;;;;;;5005228;28;20050;-49
2022/10/28 01:24:35;;;;;;;4.60;1.10;;;21.20;60.90;;;;;;5004062;28;20041;-49
2022/10/28 01:27:45;;;;;;;9.75;0.80;;;21.20;61.00;;;;;;5006038;28;20149;-50
2022/10/28 01:30:16;;;;;;;12.48;3.90;;;21.10;61.00;;;;;;4947963;29;20155;-48
2022/10/28 01:32:55;;;;;;;9.45;2.05;;;21.10;61.20;;;;;;4948915;28;20082;-48
2022/10/28 01:35:26;;;;;;;5.00;1.30;;;21.10;61.20;;;;;;4967323;28;20134;-52
2022/10/28 01:38:09;;;;;;;7.28;1.15;;;21.10;61.20;;;;;;4960017;28;20047;-49
2022/10/28 01:40:44;;;;;;;6.68;1.15;;;21.10;61.20;;;;;;4947859;28;20543;-50
2022/10/28 01:43:15;;;;;;;5.25;0.73;;;21.10;61.20;;;;;;4947820;29;20081;-49
2022/10/28 01:45:51;;;;;;;7.57;1.02;;;21.10;61.30;;;;;;4947760;28;20051;-49
2022/10/28 01:48:22;;;;;;;6.43;1.52;;;21.10;61.30;;;;;;4947582;29;20441;-49
2022/10/28 01:50:55;;;;;;;7.20;0.88;;;21.10;61.30;;;;;;4980299;28;20132;-50
2022/10/28 01:53:26;;;;;;;4.70;0.45;;;21.10;61.30;;;;;;5025281;28;20148;-50
2022/10/28 01:55:58;;;;;;;7.72;0.70;;;21.00;61.30;;;;;;5025418;28;20175;-49
2022/10/28 01:58:28;;;;;;;5.05;1.23;;;21.00;61.30;;;;;;5025308;28;20917;-49
2022/10/28 02:00:56;;;;;;;5.95;0.85;;;21.00;61.30;;;;;;5025309;28;20049;-50
2022/10/28 02:03:28;;;;;;;8.90;1.38;;;21.00;61.30;;;;;;5025434;28;20038;-50
2022/10/28 02:05:56;;;;;;;2.47;1.33;;;21.00;61.30;;;;;;5035243;28;20132;-49
2022/10/28 02:08:44;;;;;;;7.22;1.17;;;21.00;61.40;;;;;;5047812;28;20524;-51
2022/10/28 02:11:43;;;;;;;6.95;1.60;;;21.00;61.40;;;;;;5047638;28;20055;-50
2022/10/28 02:14:26;;;;;;;4.82;0.70;;;21.00;61.40;;;;;;5056758;28;20047;-54
2022/10/28 02:17:00;;;;;;;8.60;0.80;;;21.00;61.50;;;;;;5063289;28;20045;-57
2022/10/28 02:19:37;;;;;;;4.15;0.68;;;21.00;61.60;;;;;;5063241;28;20821;-53
2022/10/28 02:22:15;;;;;;;6.43;1.33;;;21.00;61.50;;;;;;5052300;28;20044;-50
2022/10/28 02:24:50;;;;;;;7.45;0.73;;;20.90;61.50;;;;;;5058436;28;20124;-53
2022/10/28 02:27:28;;;;;;;2.67;0.93;;;20.90;61.60;;;;;;5067670;28;20037;-53
2022/10/28 02:30:01;;;;;;;8.18;2.42;;;20.90;61.50;;;;;;5066264;28;20044;-52
2022/10/28 02:32:31;;;;;;;3.13;0.63;;;20.90;61.50;;;;;;5067489;28;20574;-52
2022/10/28 02:35:03;;;;;;;3.05;0.40;;;20.90;61.50;;;;;;5066179;28;20404;-52
2022/10/28 02:37:35;;;;;;;6.72;0.65;;;20.90;61.50;;;;;;5065583;28;20118;-51
2022/10/28 02:40:06;;;;;;;3.95;0.45;;;20.90;61.50;;;;;;5067473;28;20082;-52
2022/10/28 02:42:37;;;;;;;6.57;1.35;;;20.90;61.50;;;;;;5050909;28;20120;-51
2022/10/28 02:45:10;;;;;;;5.20;1.15;;;20.90;61.50;;;;;;5058465;28;20115;-51
2022/10/28 02:47:43;;;;;;;1.35;0.50;;;20.90;61.50;;;;;;5067469;28;20079;-50
2022/10/28 02:50:17;;;;;;;6.93;0.80;;;20.90;61.50;;;;;;5066423;28;20044;-52
2022/10/28 02:52:46;;;;;;;11.00;1.38;;;20.90;61.50;;;;;;5066271;28;20036;-50
2022/10/28 02:55:13;;;;;;;10.40;0.75;;;20.80;61.50;;;;;;5067285;28;20063;-53
2022/10/28 02:57:43;;;;;;;4.93;1.33;;;20.80;61.50;;;;;;5067538;28;20154;-49
2022/10/28 03:00:16;;;;;;;2.65;0.55;;;20.80;61.50;;;;;;5067351;28;20072;-51
2022/10/28 03:02:43;;;;;;;10.82;1.60;;;20.80;61.50;;;;;;5055379;28;20041;-50
2022/10/28 03:05:11;;;;;;;6.45;1.63;;;20.80;61.50;;;;;;5060683;28;20052;-51
2022/10/28 03:07:38;;;;;;;11.23;1.13;;;20.80;61.50;;;;;;5047348;28;20048;-50
2022/10/28 03:10:06;;;;;;;8.60;0.50;;;20.70;61.50;;;;;;5047520;28;20068;-49
2022/10/28 03:12:33;;;;;;;9.68;0.50;;;20.70;61.50;;;;;;5063635;28;20068;-50
2022/10/28 03:15:00;;;;;;;3.08;1.33;;;20.70;61.50;;;;;;5067449;28;20040;-49
2022/10/28 03:17:27;;;;;;;7.20;0.73;;;20.70;61.60;;;;;;5067326;28;20076;-49
2022/10/28 03:19:54;;;;;;;11.55;0.75;;;20.70;61.60;;;;;;5066691;28;20449;-48
2022/10/28 03:22:23;;;;;;;4.93;2.08;;;20.70;61.60;;;;;;5067342;28;20079;-53
2022/10/28 03:24:49;;;;;;;4.15;1.10;;;20.70;61.70;;;;;;5067347;28;20044;-49
2022/10/28 03:27:16;;;;;;;3.70;0.75;;;20.60;61.60;;;;;;5065995;28;20505;-49
2022/10/28 03:29:43;;;;;;;8.32;1.63;;;20.60;61.70;;;;;;5067135;28;20041;-49
2022/10/28 03:32:10;;;;;;;6.97;1.58;;;20.60;61.70;;;;;;5047342;28;20053;-50
2022/10/28 03:34:37;;;;;;;9.68;1.98;;;20.60;61.70;;;;;;5046788;28;20524;-52
2022/10/28 03:37:04;;;;;;;6.00;1.33;;;20.60;61.70;;;;;;5049423;28;20075;-49
2022/10/28 03:39:33;;;;;;;3.53;0.93;;;20.60;61.70;;;;;;5082932;28;20044;-48
2022/10/28 03:42:00;;;;;;;6.47;0.80;;;20.60;61.80;;;;;;5087487;28;21008;-48
2022/10/28 03:44:27;;;;;;;2.30;0.45;;;20.50;61.80;;;;;;5088985;28;20055;-50
2022/10/28 03:46:54;;;;;;;7.75;1.00;;;20.50;61.80;;;;;;5090580;28;20044;-50
2022/10/28 03:49:21;;;;;;;5.45;1.45;;;20.50;61.80;;;;;;5083089;28;20060;-51
2022/10/28 03:51:48;;;;;;;5.50;1.83;;;20.50;61.80;;;;;;5070622;28;20051;-50
2022/10/28 03:54:15;;;;;;;6.03;3.00;;;20.50;61.80;;;;;;5070373;28;20412;-49
2022/10/28 03:56:43;;;;;;;10.05;1.20;;;20.50;61.80;;;;;;5070841;28;20048;-50
2022/10/28 03:59:11;;;;;;;7.93;2.03;;;20.50;61.80;;;;;;5070529;28;20052;-48
2022/10/28 04:01:38;;;;;;;10.95;1.80;;;20.50;61.80;;;;;;5069989;28;20132;-50
2022/10/28 04:04:05;;;;;;;5.25;1.30;;;20.50;61.80;;;;;;5070417;28;20033;-52
2022/10/28 04:06:32;;;;;;;4.68;0.60;;;20.50;61.70;;;;;;5068816;28;20124;-49
2022/10/28 04:08:59;;;;;;;4.60;1.15;;;20.50;61.70;;;;;;5070462;28;20508;-47
2022/10/28 04:11:27;;;;;;;1.98;0.50;;;20.40;61.60;;;;;;5070398;28;20083;-47
2022/10/28 04:13:55;;;;;;;9.63;0.98;;;20.40;61.60;;;;;;5070052;28;20048;-50
2022/10/28 04:16:22;;;;;;;12.93;2.20;;;20.40;61.60;;;;;;5069683;28;20408;-52
2022/10/28 04:18:49;;;;;;;11.35;1.13;;;20.40;61.50;;;;;;5068934;28;20037;-47
2022/10/28 04:21:17;;;;;;;4.65;0.82;;;20.40;61.50;;;;;;5069777;28;20052;-47
2022/10/28 04:23:44;;;;;;;15.50;1.92;;;20.40;61.50;;;;;;5069912;28;20052;-47
2022/10/28 04:26:11;;;;;;;12.35;0.95;;;20.40;61.50;;;;;;5070062;28;20825;-49
2022/10/28 04:28:38;;;;;;;8.73;0.60;;;20.40;61.50;;;;;;5070010;28;20047;-47
2022/10/28 04:31:06;;;;;;;6.80;1.55;;;20.40;61.50;;;;;;5069478;28;20049;-48
2022/10/28 04:33:33;;;;;;;2.58;0.98;;;20.40;61.50;;;;;;5069868;28;20036;-47
2022/10/28 04:36:00;;;;;;;11.45;2.60;;;20.30;61.50;;;;;;5069602;28;20433;-51
2022/10/28 04:38:28;;;;;;;5.38;0.95;;;20.40;61.50;;;;;;5069608;28;20051;-48
2022/10/28 04:40:55;;;;;;;10.05;1.15;;;20.30;61.40;;;;;;5069554;28;20052;-49
2022/10/28 04:43:22;;;;;;;9.65;1.90;;;20.30;61.40;;;;;;5069883;28;20040;-51
2022/10/28 04:45:49;;;;;;;7.53;1.90;;;20.30;61.40;;;;;;5069148;28;20075;-50
2022/10/28 04:48:18;;;;;;;5.50;0.80;;;20.30;61.40;;;;;;5069778;28;20049;-53
2022/10/28 04:50:45;;;;;;;6.72;0.95;;;20.30;61.40;;;;;;5069432;28;20519;-51
2022/10/28 04:53:13;;;;;;;8.27;1.25;;;20.30;61.40;;;;;;5069783;28;20045;-50
2022/10/28 04:55:40;;;;;;;9.05;1.35;;;20.30;61.40;;;;;;5069511;28;20501;-51
2022/10/28 04:58:07;;;;;;;3.20;1.23;;;20.30;61.40;;;;;;5069583;28;20040;-50
2022/10/28 05:00:34;;;;;;;10.98;3.03;;;20.30;61.40;;;;;;5067723;28;20044;-47
2022/10/28 05:03:02;;;;;;;11.60;1.30;;;20.30;61.40;;;;;;5069409;28;20044;-50
2022/10/28 05:05:30;;;;;;;5.70;0.85;;;20.30;61.40;;;;;;5069272;28;20076;-47
2022/10/28 05:07:57;;;;;;;4.90;1.08;;;20.30;61.40;;;;;;5060076;28;20041;-48
2022/10/28 05:10:25;;;;;;;4.68;0.85;;;20.20;61.40;;;;;;5049028;28;20079;-51
2022/10/28 05:12:52;;;;;;;9.52;1.05;;;20.20;61.30;;;;;;5049385;28;20049;-47
2022/10/28 05:15:19;;;;;;;7.82;1.23;;;20.30;61.40;;;;;;5048884;28;20107;-47
2022/10/28 05:17:47;;;;;;;7.80;1.50;;;20.20;61.40;;;;;;5049036;28;20040;-48
2022/10/28 05:20:16;;;;;;;8.70;1.05;;;20.20;61.30;;;;;;5063528;28;20519;-50
2022/10/28 05:22:48;;;;;;;8.98;1.25;;;20.20;61.40;;;;;;5069289;28;20579;-49
2022/10/28 05:25:16;;;;;;;4.57;2.20;;;20.20;61.30;;;;;;5069249;28;20055;-49
2022/10/28 05:27:43;;;;;;;4.72;1.85;;;20.20;61.40;;;;;;5068702;28;20048;-52
2022/10/28 05:30:11;;;;;;;2.05;0.55;;;20.20;61.40;;;;;;5068792;28;20040;-51
2022/10/28 05:32:38;;;;;;;7.55;1.27;;;20.20;61.40;;;;;;5068966;28;20045;-51
2022/10/28 05:35:06;;;;;;;6.00;2.03;;;20.10;61.30;;;;;;5068540;28;20155;-50
2022/10/28 05:37:33;;;;;;;4.82;1.20;;;20.10;61.30;;;;;;5068077;28;20067;-49
2022/10/28 05:40:02;;;;;;;4.90;1.42;;;20.10;61.40;;;;;;5068674;28;20140;-48
2022/10/28 05:42:29;;;;;;;9.32;1.25;;;20.10;61.30;;;;;;5068153;28;20046;-52
2022/10/28 05:44:56;;;;;;;6.72;1.23;;;20.20;61.40;;;;;;5068023;28;20467;-48
2022/10/28 05:47:23;;;;;;;6.85;1.35;;;20.10;61.30;;;;;;5080496;28;20105;-47
2022/10/28 05:49:50;;;;;;;7.72;0.57;;;20.10;61.30;;;;;;5076593;28;20048;-47
2022/10/28 05:52:17;;;;;;;10.38;0.98;;;20.10;61.30;;;;;;5068332;28;20048;-49
2022/10/28 05:54:44;;;;;;;9.07;1.70;;;20.10;61.30;;;;;;5068337;28;20119;-48
2022/10/28 05:57:12;;;;;;;7.70;1.52;;;20.10;61.20;;;;;;5052090;28;20068;-49
2022/10/28 05:59:39;;;;;;;3.65;0.55;;;20.10;61.30;;;;;;5048089;28;20752;-47
2022/10/28 06:02:06;;;;;;;11.82;0.77;;;20.00;61.20;;;;;;5048303;28;20036;-52
2022/10/28 06:04:33;;;;;;;8.27;1.23;;;20.00;61.10;;;;;;5048247;28;20572;-51
2022/10/28 06:07:00;;;;;;;6.50;1.20;;;20.10;61.20;;;;;;5047707;28;20041;-49
2022/10/28 06:09:28;;;;;;;9.13;2.72;;;20.00;61.10;;;;;;5048346;28;20432;-47
2022/10/28 06:11:55;;;;;;;7.15;0.75;;;20.10;61.10;;;;;;5057034;28;20089;-48
2022/10/28 06:14:23;;;;;;;7.63;0.50;;;20.00;61.10;;;;;;5068102;28;20121;-48
2022/10/28 06:16:50;;;;;;;6.80;1.20;;;20.00;61.00;;;;;;5067958;28;20051;-47
2022/10/28 06:19:17;;;;;;;14.32;1.00;;;20.10;61.00;;;;;;5066544;28;20055;-47
2022/10/28 06:21:44;;;;;;;13.77;1.80;;;20.00;61.00;;;;;;5068117;28;20040;-50
2022/10/28 06:24:11;;;;;;;11.35;1.67;;;20.00;60.90;;;;;;5068113;28;20072;-50
2022/10/28 06:26:38;;;;;;;11.07;1.60;;;20.00;60.90;;;;;;5068170;28;20166;-47
2022/10/28 06:29:05;;;;;;;6.10;0.93;;;20.00;61.00;;;;;;5067881;28;20051;-49
2022/10/28 06:31:34;;;;;;;12.18;2.95;;;20.10;61.00;;;;;;5068649;28;20455;-51
2022/10/28 06:34:01;;;;;;;5.15;2.38;;;20.10;60.90;;;;;;5062920;28;20135;-51
2022/10/28 06:36:28;;;;;;;2.10;0.57;;;20.00;60.90;;;;;;5067161;28;20110;-51
2022/10/28 06:38:55;;;;;;;6.07;1.30;;;20.00;60.80;;;;;;5064493;28;20039;-52
2022/10/28 06:41:22;;;;;;;11.35;0.90;;;20.00;61.30;;;;;;5067384;28;20402;-48
2022/10/28 06:43:49;;;;;;;8.93;0.73;;;20.00;60.70;;;;;;5068090;28;20036;-52
2022/10/28 06:46:17;;;;;;;11.88;2.47;;;20.00;60.70;;;;;;5067622;28;20047;-48
2022/10/28 06:48:45;;;;;;;6.43;0.88;;;20.00;60.70;;;;;;5067970;28;20033;-49
2022/10/28 06:51:12;;;;;;;5.13;1.83;;;20.00;60.70;;;;;;5067637;28;20040;-49
2022/10/28 06:53:39;;;;;;;5.05;0.60;;;20.00;60.70;;;;;;5067829;28;20051;-48
2022/10/28 06:56:07;;;;;;;12.00;1.15;;;20.00;60.60;;;;;;5067755;28;20438;-52
2022/10/28 06:58:34;;;;;;;15.32;2.03;;;20.00;60.70;;;;;;5067728;28;20106;-52
2022/10/28 07:01:04;;;;;;;7.88;0.93;;;20.00;60.60;;;;;;5067726;28;20040;-51
2022/10/28 07:03:31;;;;;;;14.40;1.23;;;20.10;60.60;;;;;;5064671;28;20144;-67
2022/10/28 07:06:00;;;;;;;7.80;1.40;;;20.00;60.60;;;;;;5067397;28;20068;-55
2022/10/28 07:08:27;;;;;;;10.93;2.60;;;20.10;60.90;;;;;;5060468;28;20145;-61
2022/10/28 07:10:56;;;;;;;4.25;0.70;;;20.20;60.90;;;;;;5067236;28;20040;-54
2022/10/28 07:13:23;;;;;;;6.55;0.88;;;20.20;60.90;;;;;;5067348;28;20119;-54
2022/10/28 07:15:54;;;;;;;12.60;2.55;;;20.30;60.60;;;;;;5067298;28;20037;-62
2022/10/28 07:18:21;;;;;;;6.10;1.35;;;20.40;60.40;;;;;;5066098;28;20143;-59
2022/10/28 07:20:48;;;;;;;7.90;1.42;;;20.50;60.20;;;;;;5069724;28;20495;-60
2022/10/28 07:23:17;;;;;;;9.20;1.75;;;20.50;60.00;;;;;;5071223;28;20101;-60
2022/10/28 07:25:52;;;;;;;10.63;0.73;;;20.60;59.70;;;;;;5070955;28;20045;-57
2022/10/28 07:28:19;;;;;;;7.60;1.38;;;20.70;59.50;;;;;;5071057;28;20133;-56
2022/10/28 07:30:46;;;;;;;5.30;1.52;;;20.70;59.20;;;;;;5071251;28;20033;-68
2022/10/28 07:33:13;;;;;;;9.35;1.40;;;20.80;58.90;;;;;;5069601;28;20101;-62
2022/10/28 07:35:41;;;;;;;6.82;0.77;;;20.80;59.10;;;;;;5071208;28;20041;-62
2022/10/28 07:38:08;;;;;;;11.80;1.15;;;20.80;58.80;;;;;;5070708;28;20136;-61
2022/10/28 07:40:37;;;;;;;9.15;1.20;;;20.90;58.70;;;;;;5070615;28;20570;-64
2022/10/28 07:43:04;;;;;;;6.75;0.68;;;20.90;58.40;;;;;;5070927;28;20069;-53
2022/10/28 07:45:31;;;;;;;9.07;0.68;;;21.00;58.30;;;;;;5069214;28;20398;-63
2022/10/28 07:47:58;;;;;;;9.27;1.35;;;21.00;58.30;;;;;;5080294;28;20067;-55
2022/10/28 07:50:25;;;;;;;8.90;1.38;;;21.10;58.10;;;;;;5070686;28;20044;-57
2022/10/28 07:52:52;;;;;;;9.30;1.48;;;21.10;57.90;;;;;;5069218;28;20080;-57
2022/10/28 07:55:20;;;;;;;8.75;1.23;;;21.10;57.80;;;;;;5070370;28;20044;-57
2022/10/28 07:57:48;;;;;;;6.25;1.15;;;21.20;57.60;;;;;;5070503;28;20049;-56
2022/10/28 08:00:16;;;;;;;11.52;1.58;;;21.30;57.40;;;;;;5070237;28;20721;-60
2022/10/28 08:02:43;;;;;;;8.02;1.33;;;21.30;57.30;;;;;;5070378;28;20059;-62
2022/10/28 08:05:10;;;;;;;5.43;1.25;;;21.40;57.10;;;;;;5067016;28;20059;-61
2022/10/28 08:07:37;;;;;;;7.65;0.80;;;21.40;56.80;;;;;;5070134;28;20045;-61
2022/10/28 08:10:05;;;;;;;9.80;2.15;;;21.50;56.60;;;;;;5069617;28;20040;-59
2022/10/28 08:12:32;;;;;;;18.48;2.28;;;21.50;56.40;;;;;;5070495;28;20115;-60
2022/10/28 08:15:01;;;;;;;16.17;3.35;;;21.60;56.20;;;;;;5074013;28;20048;-66
2022/10/28 08:17:28;;;;;;;5.07;0.80;;;21.60;56.00;;;;;;5068006;28;20052;-69
2022/10/28 08:19:55;;;;;;;9.30;1.08;;;21.70;55.80;;;;;;5053833;28;20037;-68
2022/10/28 08:22:22;;;;;;;14.80;1.05;;;21.70;55.70;;;;;;5073328;28;20111;-67
2022/10/28 08:24:49;;;;;;;7.43;1.40;;;21.80;55.50;;;;;;5070959;28;20488;-70
2022/10/28 08:27:16;;;;;;;8.25;0.63;;;21.80;55.30;;;;;;5070924;28;20065;-67
2022/10/28 08:29:43;;;;;;;6.55;1.40;;;21.90;55.30;;;;;;5069758;28;20173;-64
2022/10/28 08:32:12;;;;;;;14.05;1.30;;;21.90;55.10;;;;;;5070464;28;20583;-63
2022/10/28 08:34:39;;;;;;;3.83;0.82;;;22.00;55.50;;;;;;5068935;28;20037;-66
2022/10/28 08:37:06;;;;;;;3.65;1.38;;;22.00;54.60;;;;;;5069648;28;20592;-61
2022/10/28 08:39:33;;;;;;;10.30;1.20;;;22.10;54.40;;;;;;5070578;28;20041;-62
2022/10/28 08:42:18;;;;;;;5.70;0.93;;;22.20;54.20;;;;;;5068430;28;20040;-62
2022/10/28 08:45:25;;;;;;;4.65;0.60;;;22.20;53.90;;;;;;5055838;28;20464;-63
2022/10/28 08:48:02;;;;;;;;;;;22.30;53.80;;;;;;5068035;28;20052;-64
2022/10/28 08:50:30;;;;;;;;;;;22.20;53.90;;;;;;5053473;28;20583;-61
2022/10/28 08:53:01;;;;;;;10.63;0.52;;;22.20;54.10;;;;;;5069155;28;20022;-60
2022/10/28 08:55:33;;;;;;;9.07;1.20;;;22.20;53.90;;;;;;5069595;28;20505;-61
2022/10/28 08:58:07;;;;;;;13.57;1.27;;;22.30;53.60;;;;;;5069742;28;20052;-69
2022/10/28 09:00:36;;;;;;;10.15;1.55;;;22.30;53.40;;;;;;5053624;28;20038;-71
2022/10/28 09:03:16;;;;;;;14.13;1.85;;;22.40;53.30;;;;;;5069684;28;20546;-64
2022/10/28 09:05:46;;;;;;;13.27;1.20;;;22.50;53.10;;;;;;5066704;28;20102;-54
2022/10/28 09:08:21;;;;;;;7.20;1.30;;;22.50;53.10;;;;;;5073179;28;20063;-66
2022/10/28 09:11:05;;;;;;;9.98;1.85;;;22.50;53.00;;;;;;5068954;28;20045;-60
2022/10/28 09:13:46;;;;;;;11.13;2.88;;;22.60;53.00;;;;;;5068972;28;20048;-62
2022/10/28 09:16:19;;;;;;;14.38;2.10;;;22.60;52.90;;;;;;5070768;28;20096;-63
2022/10/28 09:18:52;;;;;;;16.13;2.38;;;22.60;52.80;;;;;;5072036;28;20128;-65
2022/10/28 09:21:24;;;;;;;9.95;1.02;;;22.70;52.80;;;;;;5070914;28;20119;-62
2022/10/28 09:23:56;;;;;;;12.60;1.00;;;22.70;52.80;;;;;;5073098;28;20044;-66
2022/10/28 09:26:33;;;;;;;7.07;0.57;;;22.70;52.70;;;;;;5074527;28;20047;-73
2022/10/28 09:29:12;;;;;;;11.18;1.95;;;22.80;52.80;;;;;;5073233;28;20048;-71
2022/10/28 09:31:42;;;;;;;7.60;1.83;;;22.80;52.80;;;;;;5074396;28;20119;-63
2022/10/28 09:34:27;;;;;;;10.57;2.03;;;22.90;52.80;;;;;;5072917;28;20096;-67
2022/10/28 09:36:59;;;;;;;6.65;1.35;;;22.90;52.80;;;;;;5071817;28;20071;-63
2022/10/28 09:39:31;;;;;;;9.07;2.72;;;23.00;52.80;;;;;;5072439;28;20044;-66
2022/10/28 09:42:02;;;;;;;9.80;1.92;;;23.00;52.70;;;;;;5070550;28;20044;-64
2022/10/28 09:44:39;;;;;;;5.35;1.08;;;23.10;52.60;;;;;;5081180;28;20079;-61
2022/10/28 09:47:15;;;;;;;9.55;1.10;;;23.20;52.50;;;;;;5070036;28;20060;-65
2022/10/28 09:49:45;;;;;;;;;;;23.30;52.50;;;;;;5068475;28;20543;-56
2022/10/28 09:52:18;;;;;;;11.38;0.75;;;23.20;52.60;;;;;;5069797;28;20426;-63
2022/10/28 09:54:50;;;;;;;14.00;1.00;;;23.30;52.70;;;;;;5076993;28;20507;-73
2022/10/28 09:57:17;;;;;;;3.58;0.88;;;23.40;52.60;;;;;;5075938;28;20052;-64
2022/10/28 09:59:45;;;;;;;9.50;0.65;;;23.40;52.50;;;;;;5073833;28;20040;-75
2022/10/28 10:02:26;;;;;;;11.23;1.92;;;23.50;52.50;;;;;;5069845;28;20047;-62
2022/10/28 10:04:55;;;;;;;7.60;0.55;;;23.60;52.20;;;;;;5070993;28;20036;-61
2022/10/28 10:07:32;;;;;;;4.35;0.70;;;23.60;52.20;;;;;;5070696;28;20429;-68
2022/10/28 10:10:03;;;;;;;10.05;1.55;;;23.60;52.10;;;;;;5072823;28;20047;-63
2022/10/28 10:12:32;;;;;;;5.03;0.70;;;23.60;52.00;;;;;;5058453;28;20044;-66
2022/10/28 10:15:00;;;;;;;9.93;0.90;;;23.70;52.00;;;;;;5068878;28;20433;-64
2022/10/28 10:17:34;;;;;;;6.60;1.15;;;23.60;51.40;;;;;;5068836;28;20079;-62
2022/10/28 10:20:07;;;;;;;11.57;2.10;;;23.70;52.10;;;;;;5068177;28;20123;-59
2022/10/28 10:22:36;;;;;;;8.18;1.70;;;23.70;52.10;;;;;;5051934;28;20155;-59
2022/10/28 10:25:04;;;;;;;9.02;1.10;;;23.80;52.10;;;;;;5067792;28;20051;-59
2022/10/28 10:27:31;;;;;;;9.25;0.70;;;23.80;52.00;;;;;;5067599;28;20048;-61
2022/10/28 10:29:59;;;;;;;10.48;1.65;;;23.80;52.00;;;;;;5067858;28;20044;-60
2022/10/28 10:32:28;;;;;;;7.05;1.65;;;23.90;52.00;;;;;;5067466;28;20055;-60
2022/10/28 10:35:05;;;;;;;4.32;1.33;;;24.00;52.00;;;;;;5066029;28;20045;-60
2022/10/28 10:37:35;;;;;;;7.25;0.85;;;24.00;51.90;;;;;;5065824;28;20509;-60
2022/10/28 10:40:16;;;;;;;6.32;2.92;;;24.10;51.80;;;;;;5066965;28;20181;-59
2022/10/28 10:42:43;;;;;;;9.40;1.23;;;24.10;51.80;;;;;;5052761;28;20048;-56
2022/10/28 10:45:21;;;;;;;6.68;1.52;;;24.20;51.80;;;;;;5067544;28;20040;-58
2022/10/28 10:47:48;;;;;;;16.02;1.65;;;24.30;51.70;;;;;;5066850;28;20148;-56
2022/10/28 10:50:27;;;;;;;6.00;1.13;;;24.30;51.70;;;;;;5050914;28;20094;-57
2022/10/28 10:52:57;;;;;;;8.48;1.77;;;24.30;51.60;;;;;;5055351;28;20097;-55
2022/10/28 10:55:33;;;;;;;8.25;1.02;;;24.40;51.50;;;;;;5071454;28;20045;-55
2022/10/28 10:58:01;;;;;;;15.68;3.03;;;24.50;51.50;;;;;;5061857;28;20106;-52
2022/10/28 11:00:32;;;;;;;6.90;1.35;;;24.50;51.50;;;;;;5067299;28;20051;-49
2022/10/28 11:03:00;;;;;;;11.82;2.15;;;24.60;51.50;;;;;;5066165;28;20535;-50
2022/10/28 11:05:29;;;;;;;5.70;2.05;;;24.60;51.40;;;;;;5071392;28;20133;-53
2022/10/28 11:07:58;;;;;;;11.95;1.77;;;24.70;51.40;;;;;;5071792;28;20067;-55
2022/10/28 11:10:27;;;;;;;8.90;1.48;;;24.70;51.30;;;;;;5071544;28;20049;-53
2022/10/28 11:12:55;;;;;;;20.50;2.13;;;24.70;51.20;;;;;;5071765;28;20146;-49
2022/10/28 11:15:26;;;;;;;9.88;1.10;;;24.80;51.30;;;;;;5071522;28;20040;-48
2022/10/28 11:17:59;;;;;;;10.63;3.03;;;24.80;51.20;;;;;;5071279;28;20121;-52
2022/10/28 11:20:32;;;;;;;4.72;1.45;;;24.80;51.20;;;;;;5070026;28;20048;-49
2022/10/28 11:23:26;;;;;;;12.38;2.88;;;24.80;51.20;;;;;;5071533;28;20117;-52
2022/10/28 11:25:55;;;;;;;17.90;2.75;;;24.90;51.20;;;;;;5071544;28;20044;-50
2022/10/28 11:28:43;;;;;;;8.88;0.65;;;24.90;51.30;;;;;;5071217;28;20044;-52
2022/10/28 11:31:46;;;;;;;7.47;1.38;;;24.90;51.30;;;;;;5067123;28;20120;-57
2022/10/28 11:34:29;;;;;;;8.98;1.52;;;25.00;51.20;;;;;;5068396;28;20036;-55
2022/10/28 11:37:08;;;;;;;10.02;1.80;;;25.00;51.20;;;;;;5068913;28;20048;-56
2022/10/28 11:39:42;;;;;;;7.63;2.05;;;25.00;51.20;;;;;;5068984;28;20116;-57
2022/10/28 11:42:18;;;;;;;9.32;2.10;;;25.10;51.20;;;;;;5071415;28;20086;-54
2022/10/28 11:44:51;;;;;;;12.50;1.70;;;25.10;51.10;;;;;;5070361;28;20125;-58
2022/10/28 11:47:36;;;;;;;15.38;2.40;;;25.10;51.10;;;;;;5070727;28;20814;-53
2022/10/28 11:50:33;;;;;;;9.52;0.95;;;25.20;51.10;;;;;;5068437;28;20532;-57
2022/10/28 11:53:21;;;;;;;12.60;0.95;;;25.30;51.20;;;;;;5062955;28;20044;-53
2022/10/28 11:55:56;;;;;;;13.10;1.95;;;25.30;51.20;;;;;;5069860;28;20059;-55
2022/10/28 11:58:32;;;;;;;10.75;1.38;;;25.40;51.30;;;;;;5067951;28;20637;-50
2022/10/28 12:01:21;;;;;;;13.20;2.25;;;25.40;51.20;;;;;;5066648;28;20124;-49
2022/10/28 12:04:16;;;;;;;9.88;1.50;;;25.50;51.20;;;;;;5068483;28;20523;-48
2022/10/28 12:07:10;;;;;;;7.65;1.65;;;25.50;51.20;;;;;;5068984;28;20147;-52
2022/10/28 12:09:51;;;;;;;7.97;1.55;;;25.60;51.20;;;;;;5066767;28;20127;-52
2022/10/28 12:12:27;;;;;;;9.98;2.28;;;25.60;51.10;;;;;;5066873;28;20169;-52
2022/10/28 12:15:06;;;;;;;11.02;1.80;;;25.60;51.00;;;;;;5068717;28;20044;-53
2022/10/28 12:17:40;;;;;;;8.68;1.05;;;25.70;51.00;;;;;;5066695;28;20597;-48
2022/10/28 12:20:14;;;;;;;13.20;1.65;;;25.70;50.90;;;;;;5063648;28;20036;-51
2022/10/28 12:22:48;;;;;;;6.20;1.00;;;25.80;50.90;;;;;;5069669;28;20585;-51
2022/10/28 12:25:22;;;;;;;4.30;1.55;;;25.80;50.80;;;;;;5064199;28;20109;-50
2022/10/28 12:27:51;;;;;;;7.03;1.63;;;25.80;50.80;;;;;;5070035;28;20046;-53
2022/10/28 12:30:21;;;;;;;7.05;1.95;;;25.90;50.80;;;;;;5069464;28;20044;-50
2022/10/28 12:32:53;;;;;;;6.05;2.03;;;25.90;50.70;;;;;;5070738;28;20076;-49
2022/10/28 12:35:24;;;;;;;7.13;2.17;;;25.90;50.70;;;;;;5068608;28;20032;-52
2022/10/28 12:37:56;;;;;;;6.30;1.65;;;26.00;50.80;;;;;;5070152;28;20047;-51
2022/10/28 12:40:29;;;;;;;11.23;1.08;;;26.00;50.70;;;;;;5069006;28;20509;-51
2022/10/28 12:43:00;;;;;;;8.18;1.52;;;26.00;50.60;;;;;;5066849;28;20135;-53
2022/10/28 12:45:31;;;;;;;17.75;2.40;;;26.00;50.60;;;;;;5068596;28;20048;-49
2022/10/28 12:48:03;;;;;;;12.07;1.33;;;26.10;51.20;;;;;;5066893;28;20040;-50
2022/10/28 12:50:37;;;;;;;13.13;2.22;;;26.10;50.60;;;;;;5069098;28;20112;-50
2022/10/28 12:53:23;;;;;;;7.07;1.80;;;26.10;50.50;;;;;;5067330;28;20551;-50
2022/10/28 12:55:56;;;;;;;7.50;2.75;;;26.20;50.50;;;;;;5067107;28;20034;-50
2022/10/28 12:58:30;;;;;;;11.77;2.30;;;26.20;50.50;;;;;;5068738;28;20144;-52
2022/10/28 13:01:00;;;;;;;9.98;1.13;;;26.20;50.60;;;;;;5066507;28;20068;-49
2022/10/28 13:03:28;;;;;;;6.95;1.92;;;26.20;50.60;;;;;;5069048;28;20516;-50
2022/10/28 13:06:10;;;;;;;8.27;1.92;;;26.20;50.50;;;;;;5066394;28;20040;-48